sensor_id;sensor_type;location;lat;lon;timestamp;P1;durP1;ratioP1;P2;durP2;ratioP2
43226;SDS011;28839;52.404;9.808;2022-11-12T00:05:58;8.13;;;3.90;;
43226;SDS011;28839;52.404;9.808;2022-11-12T00:12:52;5.28;;;3.58;;
43226;SDS011;28839;52.404;9.808;2022-11-12T00:19:46;7.37;;;4.05;;
43226;SDS011;28839;52.404;9.808;2022-11-12T00:26:41;8.18;;;4.25;;
43226;SDS011;28839;52.404;9.808;2022-11-12T00:33:37;5.05;;;3.72;;
43226;SDS011;28839;52.404;9.808;2022-11-12T00:40:32;5.10;;;4.07;;
43226;SDS011;28839;52.404;9.808;2022-11-12T00:47:28;6.65;;;4.00;;
43226;SDS011;28839;52.404;9.808;2022-11-12T00:54:21;6.03;;;3.45;;
43226;SDS011;28839;52.404;9.808;2022-11-12T01:01:15;7.18;;;4.30;;
43226;SDS011;28839;52.404;9.808;2022-11-12T01:08:10;7.85;;;5.25;;
43226;SDS011;28839;52.404;9.808;2022-11-12T01:15:05;7.85;;;4.80;;
43226;SDS011;28839;52.404;9.808;2022-11-12T01:22:00;10.52;;;6.10;;
43226;SDS011;28839;52.404;9.808;2022-11-12T01:28:58;9.15;;;5.37;;
43226;SDS011;28839;52.404;9.808;2022-11-12T01:35:57;9.05;;;5.12;;
43226;SDS011;28839;52.404;9.808;2022-11-12T01:42:51;6.32;;;4.70;;
43226;SDS011;28839;52.404;9.808;2022-11-12T01:49:48;6.60;;;4.10;;
43226;SDS011;28839;52.404;9.808;2022-11-12T01:56:44;7.20;;;4.40;;
43226;SDS011;28839;52.404;9.808;2022-11-12T02:03:40;10.65;;;4.10;;
43226;SDS011;28839;52.404;9.808;2022-11-12T02:10:36;8.68;;;4.00;;
43226;SDS011;28839;52.404;9.808;2022-11-12T02:17:32;6.72;;;3.40;;
43226;SDS011;28839;52.404;9.808;2022-11-12T02:24:31;5.35;;;3.53;;
43226;SDS011;28839;52.404;9.808;2022-11-12T02:31:28;6.12;;;4.37;;
43226;SDS011;28839;52.404;9.808;2022-11-12T02:38:22;5.77;;;3.33;;
43226;SDS011;28839;52.404;9.808;2022-11-12T02:45:17;9.07;;;3.70;;
43226;SDS011;28839;52.404;9.808;2022-11-12T02:52:12;6.68;;;3.67;;
43226;SDS011;28839;52.404;9.808;2022-11-12T02:59:05;8.88;;;3.95;;
43226;SDS011;28839;52.404;9.808;2022-11-12T03:06:01;6.37;;;3.90;;
43226;SDS011;28839;52.404;9.808;2022-11-12T03:12:55;6.00;;;3.62;;
43226;SDS011;28839;52.404;9.808;2022-11-12T03:19:50;7.43;;;4.45;;
43226;SDS011;28839;52.404;9.808;2022-11-12T03:26:45;7.78;;;4.07;;
43226;SDS011;28839;52.404;9.808;2022-11-12T03:33:39;5.40;;;3.65;;
43226;SDS011;28839;52.404;9.808;2022-11-12T03:40:32;5.53;;;4.20;;
43226;SDS011;28839;52.404;9.808;2022-11-12T03:47:28;9.38;;;4.50;;
43226;SDS011;28839;52.404;9.808;2022-11-12T03:54:22;7.80;;;4.03;;
43226;SDS011;28839;52.404;9.808;2022-11-12T04:01:15;6.97;;;4.00;;
43226;SDS011;28839;52.404;9.808;2022-11-12T04:08:13;6.30;;;3.62;;
43226;SDS011;28839;52.404;9.808;2022-11-12T04:15:26;8.82;;;4.57;;
43226;SDS011;28839;52.404;9.808;2022-11-12T04:22:19;7.05;;;4.25;;
43226;SDS011;28839;52.404;9.808;2022-11-12T04:29:15;7.10;;;3.95;;
43226;SDS011;28839;52.404;9.808;2022-11-12T04:36:26;9.93;;;5.18;;
43226;SDS011;28839;52.404;9.808;2022-11-12T04:43:20;9.10;;;4.60;;
43226;SDS011;28839;52.404;9.808;2022-11-12T04:50:41;9.48;;;4.85;;
43226;SDS011;28839;52.404;9.808;2022-11-12T04:57:39;6.30;;;4.80;;
43226;SDS011;28839;52.404;9.808;2022-11-12T05:04:32;6.53;;;4.35;;
43226;SDS011;28839;52.404;9.808;2022-11-12T05:11:27;6.43;;;4.75;;
43226;SDS011;28839;52.404;9.808;2022-11-12T05:25:15;8.07;;;5.22;;
43226;SDS011;28839;52.404;9.808;2022-11-12T05:32:12;12.77;;;5.80;;
43226;SDS011;28839;52.404;9.808;2022-11-12T05:39:07;8.55;;;4.95;;
43226;SDS011;28839;52.404;9.808;2022-11-12T05:46:00;7.90;;;5.18;;
43226;SDS011;28839;52.404;9.808;2022-11-12T05:52:56;6.80;;;4.75;;
43226;SDS011;28839;52.404;9.808;2022-11-12T05:59:50;11.38;;;6.00;;
43226;SDS011;28839;52.404;9.808;2022-11-12T06:06:43;8.95;;;5.10;;
43226;SDS011;28839;52.404;9.808;2022-11-12T06:13:39;10.55;;;6.20;;
43226;SDS011;28839;52.404;9.808;2022-11-12T06:20:33;11.48;;;6.10;;
43226;SDS011;28839;52.404;9.808;2022-11-12T06:27:27;11.50;;;6.22;;
43226;SDS011;28839;52.404;9.808;2022-11-12T06:34:23;8.60;;;5.65;;
43226;SDS011;28839;52.404;9.808;2022-11-12T06:41:17;8.10;;;5.43;;
43226;SDS011;28839;52.404;9.808;2022-11-12T06:48:10;13.45;;;5.43;;
43226;SDS011;28839;52.404;9.808;2022-11-12T06:55:06;8.90;;;6.12;;
43226;SDS011;28839;52.404;9.808;2022-11-12T07:02:01;11.23;;;6.80;;
43226;SDS011;28839;52.404;9.808;2022-11-12T07:08:55;9.35;;;6.22;;
43226;SDS011;28839;52.404;9.808;2022-11-12T07:15:50;9.88;;;6.97;;
43226;SDS011;28839;52.404;9.808;2022-11-12T07:29:38;10.77;;;7.72;;
43226;SDS011;28839;52.404;9.808;2022-11-12T07:36:33;12.93;;;8.17;;
43226;SDS011;28839;52.404;9.808;2022-11-12T07:43:27;12.07;;;7.78;;
43226;SDS011;28839;52.404;9.808;2022-11-12T07:50:22;12.20;;;7.93;;
43226;SDS011;28839;52.404;9.808;2022-11-12T07:57:17;12.23;;;7.85;;
43226;SDS011;28839;52.404;9.808;2022-11-12T08:11:05;9.32;;;5.50;;
43226;SDS011;28839;52.404;9.808;2022-11-12T08:18:00;11.07;;;5.57;;
43226;SDS011;28839;52.404;9.808;2022-11-12T08:24:54;9.23;;;5.85;;
43226;SDS011;28839;52.404;9.808;2022-11-12T08:31:48;12.15;;;4.85;;
43226;SDS011;28839;52.404;9.808;2022-11-12T08:38:43;9.07;;;4.73;;
43226;SDS011;28839;52.404;9.808;2022-11-12T08:45:38;8.85;;;4.87;;
43226;SDS011;28839;52.404;9.808;2022-11-12T08:52:33;5.82;;;3.80;;
43226;SDS011;28839;52.404;9.808;2022-11-12T08:59:28;5.90;;;3.97;;
43226;SDS011;28839;52.404;9.808;2022-11-12T09:06:22;5.15;;;3.37;;
43226;SDS011;28839;52.404;9.808;2022-11-12T09:13:16;7.10;;;3.20;;
43226;SDS011;28839;52.404;9.808;2022-11-12T09:20:12;7.70;;;3.63;;
43226;SDS011;28839;52.404;9.808;2022-11-12T09:27:06;5.28;;;3.65;;
43226;SDS011;28839;52.404;9.808;2022-11-12T09:34:00;4.43;;;3.73;;
43226;SDS011;28839;52.404;9.808;2022-11-12T09:41:02;10.07;;;7.03;;
43226;SDS011;28839;52.404;9.808;2022-11-12T09:48:07;5.78;;;3.53;;
43226;SDS011;28839;52.404;9.808;2022-11-12T09:55:05;4.18;;;3.08;;
43226;SDS011;28839;52.404;9.808;2022-11-12T10:02:16;5.82;;;3.40;;
43226;SDS011;28839;52.404;9.808;2022-11-12T10:09:18;7.07;;;3.30;;
43226;SDS011;28839;52.404;9.808;2022-11-12T10:16:22;6.12;;;3.37;;
43226;SDS011;28839;52.404;9.808;2022-11-12T10:23:39;5.15;;;3.15;;
43226;SDS011;28839;52.404;9.808;2022-11-12T10:30:35;7.57;;;3.30;;
43226;SDS011;28839;52.404;9.808;2022-11-12T10:37:32;5.00;;;2.87;;
43226;SDS011;28839;52.404;9.808;2022-11-12T10:44:32;6.80;;;4.32;;
43226;SDS011;28839;52.404;9.808;2022-11-12T10:51:28;4.87;;;3.47;;
43226;SDS011;28839;52.404;9.808;2022-11-12T10:58:24;4.97;;;3.67;;
43226;SDS011;28839;52.404;9.808;2022-11-12T11:05:23;5.63;;;3.63;;
43226;SDS011;28839;52.404;9.808;2022-11-12T11:12:24;36.15;;;17.70;;
43226;SDS011;28839;52.404;9.808;2022-11-12T11:19:20;13.77;;;6.60;;
43226;SDS011;28839;52.404;9.808;2022-11-12T11:26:26;6.97;;;3.70;;
43226;SDS011;28839;52.404;9.808;2022-11-12T11:33:31;7.30;;;3.65;;
43226;SDS011;28839;52.404;9.808;2022-11-12T11:40:35;7.45;;;5.07;;
43226;SDS011;28839;52.404;9.808;2022-11-12T11:47:34;5.97;;;3.78;;
43226;SDS011;28839;52.404;9.808;2022-11-12T11:54:43;6.62;;;4.07;;
43226;SDS011;28839;52.404;9.808;2022-11-12T12:01:51;5.15;;;4.03;;
43226;SDS011;28839;52.404;9.808;2022-11-12T12:09:12;9.40;;;4.37;;
43226;SDS011;28839;52.404;9.808;2022-11-12T12:23:32;9.00;;;3.97;;
43226;SDS011;28839;52.404;9.808;2022-11-12T12:30:30;4.32;;;3.45;;
43226;SDS011;28839;52.404;9.808;2022-11-12T12:37:30;7.95;;;4.00;;
43226;SDS011;28839;52.404;9.808;2022-11-12T12:44:29;5.40;;;3.83;;
43226;SDS011;28839;52.404;9.808;2022-11-12T12:51:53;9.15;;;4.43;;
43226;SDS011;28839;52.404;9.808;2022-11-12T12:58:47;11.12;;;4.62;;
43226;SDS011;28839;52.404;9.808;2022-11-12T13:05:42;12.50;;;5.45;;
43226;SDS011;28839;52.404;9.808;2022-11-12T13:35:14;6.53;;;4.68;;
43226;SDS011;28839;52.404;9.808;2022-11-12T13:42:13;4.78;;;3.50;;
43226;SDS011;28839;52.404;9.808;2022-11-12T13:49:29;6.60;;;3.72;;
43226;SDS011;28839;52.404;9.808;2022-11-12T13:56:25;6.12;;;3.65;;
43226;SDS011;28839;52.404;9.808;2022-11-12T14:03:20;9.68;;;4.37;;
43226;SDS011;28839;52.404;9.808;2022-11-12T14:10:20;8.05;;;4.25;;
43226;SDS011;28839;52.404;9.808;2022-11-12T14:17:27;6.43;;;3.85;;
43226;SDS011;28839;52.404;9.808;2022-11-12T14:24:30;8.63;;;4.32;;
43226;SDS011;28839;52.404;9.808;2022-11-12T14:31:26;6.35;;;4.05;;
43226;SDS011;28839;52.404;9.808;2022-11-12T14:38:20;8.93;;;4.85;;
43226;SDS011;28839;52.404;9.808;2022-11-12T14:45:19;10.27;;;5.20;;
43226;SDS011;28839;52.404;9.808;2022-11-12T14:52:16;10.52;;;5.62;;
43226;SDS011;28839;52.404;9.808;2022-11-12T14:59:14;11.93;;;4.85;;
43226;SDS011;28839;52.404;9.808;2022-11-12T15:06:09;28.42;;;5.80;;
43226;SDS011;28839;52.404;9.808;2022-11-12T15:20:01;17.23;;;7.15;;
43226;SDS011;28839;52.404;9.808;2022-11-12T15:26:57;12.40;;;6.93;;
43226;SDS011;28839;52.404;9.808;2022-11-12T15:33:54;15.18;;;8.05;;
43226;SDS011;28839;52.404;9.808;2022-11-12T15:41:17;14.00;;;7.78;;
43226;SDS011;28839;52.404;9.808;2022-11-12T15:48:14;11.40;;;6.97;;
43226;SDS011;28839;52.404;9.808;2022-11-12T15:55:09;8.53;;;5.90;;
43226;SDS011;28839;52.404;9.808;2022-11-12T16:02:07;14.48;;;7.28;;
43226;SDS011;28839;52.404;9.808;2022-11-12T16:09:03;14.95;;;6.90;;
43226;SDS011;28839;52.404;9.808;2022-11-12T16:15:58;16.23;;;7.80;;
43226;SDS011;28839;52.404;9.808;2022-11-12T16:22:52;12.37;;;8.00;;
43226;SDS011;28839;52.404;9.808;2022-11-12T16:29:46;11.32;;;7.72;;
43226;SDS011;28839;52.404;9.808;2022-11-12T16:36:42;11.73;;;7.90;;
43226;SDS011;28839;52.404;9.808;2022-11-12T16:43:35;17.52;;;9.73;;
43226;SDS011;28839;52.404;9.808;2022-11-12T16:50:29;14.10;;;8.53;;
43226;SDS011;28839;52.404;9.808;2022-11-12T16:57:25;14.23;;;8.45;;
43226;SDS011;28839;52.404;9.808;2022-11-12T17:04:18;18.05;;;8.57;;
43226;SDS011;28839;52.404;9.808;2022-11-12T17:11:13;15.25;;;8.95;;
43226;SDS011;28839;52.404;9.808;2022-11-12T17:18:11;19.67;;;12.37;;
43226;SDS011;28839;52.404;9.808;2022-11-12T17:25:05;15.75;;;11.18;;
43226;SDS011;28839;52.404;9.808;2022-11-12T17:32:00;20.35;;;11.35;;
43226;SDS011;28839;52.404;9.808;2022-11-12T17:38:56;40.85;;;25.27;;
43226;SDS011;28839;52.404;9.808;2022-11-12T17:45:51;19.62;;;13.98;;
43226;SDS011;28839;52.404;9.808;2022-11-12T17:52:46;22.77;;;13.38;;
43226;SDS011;28839;52.404;9.808;2022-11-12T17:59:41;20.98;;;13.73;;
43226;SDS011;28839;52.404;9.808;2022-11-12T18:06:35;22.98;;;15.52;;
43226;SDS011;28839;52.404;9.808;2022-11-12T18:13:29;34.60;;;22.20;;
43226;SDS011;28839;52.404;9.808;2022-11-12T18:20:24;27.60;;;18.67;;
43226;SDS011;28839;52.404;9.808;2022-11-12T18:27:19;20.52;;;11.63;;
43226;SDS011;28839;52.404;9.808;2022-11-12T18:34:13;16.37;;;10.77;;
43226;SDS011;28839;52.404;9.808;2022-11-12T18:41:09;18.30;;;11.27;;
43226;SDS011;28839;52.404;9.808;2022-11-12T18:48:04;17.62;;;11.18;;
43226;SDS011;28839;52.404;9.808;2022-11-12T18:54:59;18.67;;;12.17;;
43226;SDS011;28839;52.404;9.808;2022-11-12T19:08:49;14.52;;;10.52;;
43226;SDS011;28839;52.404;9.808;2022-11-12T19:15:43;20.13;;;13.40;;
43226;SDS011;28839;52.404;9.808;2022-11-12T19:22:38;81.40;;;45.28;;
43226;SDS011;28839;52.404;9.808;2022-11-12T19:29:32;26.02;;;17.55;;
43226;SDS011;28839;52.404;9.808;2022-11-12T19:36:26;25.62;;;16.27;;
43226;SDS011;28839;52.404;9.808;2022-11-12T19:43:22;23.80;;;15.80;;
43226;SDS011;28839;52.404;9.808;2022-11-12T19:50:16;22.20;;;16.70;;
43226;SDS011;28839;52.404;9.808;2022-11-12T19:57:10;22.37;;;16.17;;
43226;SDS011;28839;52.404;9.808;2022-11-12T20:04:06;26.12;;;15.77;;
43226;SDS011;28839;52.404;9.808;2022-11-12T20:11:00;21.52;;;15.85;;
43226;SDS011;28839;52.404;9.808;2022-11-12T20:17:54;21.63;;;15.30;;
43226;SDS011;28839;52.404;9.808;2022-11-12T20:24:52;26.12;;;15.75;;
43226;SDS011;28839;52.404;9.808;2022-11-12T20:31:46;22.73;;;16.70;;
43226;SDS011;28839;52.404;9.808;2022-11-12T20:38:40;24.87;;;17.35;;
43226;SDS011;28839;52.404;9.808;2022-11-12T20:45:37;24.05;;;16.52;;
43226;SDS011;28839;52.404;9.808;2022-11-12T20:52:31;21.40;;;16.10;;
43226;SDS011;28839;52.404;9.808;2022-11-12T20:59:25;22.05;;;16.73;;
43226;SDS011;28839;52.404;9.808;2022-11-12T21:06:21;22.67;;;15.53;;
43226;SDS011;28839;52.404;9.808;2022-11-12T21:13:17;27.60;;;17.48;;
43226;SDS011;28839;52.404;9.808;2022-11-12T21:20:11;26.87;;;18.83;;
43226;SDS011;28839;52.404;9.808;2022-11-12T21:27:06;23.70;;;15.48;;
43226;SDS011;28839;52.404;9.808;2022-11-12T21:34:02;22.87;;;16.50;;
43226;SDS011;28839;52.404;9.808;2022-11-12T21:41:01;24.98;;;16.98;;
43226;SDS011;28839;52.404;9.808;2022-11-12T21:47:58;29.90;;;20.60;;
43226;SDS011;28839;52.404;9.808;2022-11-12T21:54:52;25.25;;;17.87;;
43226;SDS011;28839;52.404;9.808;2022-11-12T22:01:46;28.00;;;18.27;;
43226;SDS011;28839;52.404;9.808;2022-11-12T22:08:41;27.13;;;16.75;;
43226;SDS011;28839;52.404;9.808;2022-11-12T22:15:35;24.00;;;17.02;;
43226;SDS011;28839;52.404;9.808;2022-11-12T22:22:29;27.55;;;17.00;;
43226;SDS011;28839;52.404;9.808;2022-11-12T22:29:24;26.70;;;16.65;;
43226;SDS011;28839;52.404;9.808;2022-11-12T22:36:19;29.67;;;17.00;;
43226;SDS011;28839;52.404;9.808;2022-11-12T22:43:14;31.95;;;19.87;;
43226;SDS011;28839;52.404;9.808;2022-11-12T22:50:09;29.37;;;19.77;;
43226;SDS011;28839;52.404;9.808;2022-11-12T22:57:03;40.53;;;24.33;;
43226;SDS011;28839;52.404;9.808;2022-11-12T23:03:58;35.13;;;22.48;;
43226;SDS011;28839;52.404;9.808;2022-11-12T23:10:54;35.38;;;24.08;;
43226;SDS011;28839;52.404;9.808;2022-11-12T23:17:51;31.92;;;21.48;;
43226;SDS011;28839;52.404;9.808;2022-11-12T23:24:45;37.08;;;22.77;;
43226;SDS011;28839;52.404;9.808;2022-11-12T23:31:40;37.92;;;21.85;;
43226;SDS011;28839;52.404;9.808;2022-11-12T23:38:34;32.58;;;21.23;;
43226;SDS011;28839;52.404;9.808;2022-11-12T23:45:28;32.95;;;21.90;;
43226;SDS011;28839;52.404;9.808;2022-11-12T23:52:23;29.67;;;20.92;;
43226;SDS011;28839;52.404;9.808;2022-11-12T23:59:17;32.20;;;20.85;;
